createdAt,value
2022-09-02T00:00:30.344Z,14.23
2022-09-02T00:04:15.370Z,14.21
2022-09-02T00:07:59.492Z,14.18
2022-09-02T00:11:44.754Z,14.17
2022-09-02T00:15:27.523Z,14.12
2022-09-02T00:19:11.103Z,14.11
2022-09-02T00:22:53.961Z,14.09
2022-09-02T00:26:38.474Z,14.05
2022-09-02T00:30:21.311Z,14.02
2022-09-02T00:34:04.814Z,14.00
2022-09-02T00:37:47.559Z,13.96
2022-09-02T00:41:30.829Z,13.92
2022-09-02T00:45:15.050Z,13.87
2022-09-02T00:49:02.885Z,13.84
2022-09-02T00:52:47.561Z,13.82
2022-09-02T00:56:32.070Z,13.79
2022-09-02T01:00:18.860Z,13.76
2022-09-02T01:04:01.714Z,13.71
2022-09-02T01:07:44.969Z,13.71
2022-09-02T01:11:31.977Z,13.70
2022-09-02T01:15:16.554Z,13.70
2022-09-02T01:19:01.227Z,13.67
2022-09-02T01:22:46.252Z,13.65
2022-09-02T01:26:28.984Z,13.59
2022-09-02T01:30:14.449Z,13.58
2022-09-02T01:33:58.121Z,13.59
2022-09-02T01:37:42.164Z,13.56
2022-09-02T01:41:39.461Z,13.54
2022-09-02T01:45:22.416Z,13.51
2022-09-02T01:49:06.033Z,13.49
2022-09-02T01:52:48.916Z,13.47
2022-09-02T01:56:31.722Z,13.45
2022-09-02T02:00:17.584Z,13.42
2022-09-02T02:04:00.918Z,13.39
2022-09-02T02:07:43.785Z,13.37
2022-09-02T02:11:26.543Z,13.36
2022-09-02T02:15:11.691Z,13.34
2022-09-02T02:18:55.914Z,13.32
2022-09-02T02:22:39.213Z,13.32
2022-09-02T02:26:22.097Z,13.28
2022-09-02T02:30:06.400Z,13.27
2022-09-02T02:33:49.171Z,13.24
2022-09-02T02:37:33.347Z,13.19
2022-09-02T02:41:19.019Z,13.14
2022-09-02T02:45:01.827Z,13.11
2022-09-02T02:48:44.607Z,13.10
2022-09-02T02:52:27.397Z,13.07
2022-09-02T02:56:11.543Z,13.05
2022-09-02T02:59:54.326Z,13.02
2022-09-02T03:03:37.283Z,12.99
2022-09-02T03:07:20.020Z,12.98
2022-09-02T03:11:02.989Z,12.96
2022-09-02T03:14:47.092Z,12.93
2022-09-02T03:18:29.848Z,12.91
2022-09-02T03:22:13.160Z,12.89
2022-09-02T03:25:55.942Z,12.85
2022-09-02T03:29:39.020Z,12.81
2022-09-02T03:33:23.235Z,12.78
2022-09-02T03:37:06.164Z,12.79
2022-09-02T03:40:49.006Z,12.78
2022-09-02T03:44:33.174Z,12.74
2022-09-02T03:48:17.124Z,12.71
2022-09-02T03:52:01.323Z,12.69
2022-09-02T03:55:44.371Z,12.67
2022-09-02T03:59:27.288Z,12.66
2022-09-02T04:03:10.115Z,12.63
2022-09-02T04:06:52.928Z,12.60
2022-09-02T04:10:38.257Z,12.58
2022-09-02T04:14:21.094Z,12.55
2022-09-02T04:18:59.205Z,12.54
2022-09-02T04:22:43.718Z,12.54
2022-09-02T04:26:27.893Z,12.50
2022-09-02T04:30:11.773Z,12.48
2022-09-02T04:33:54.557Z,12.46
2022-09-02T04:37:37.401Z,12.46
2022-09-02T04:41:22.580Z,12.43
2022-09-02T04:45:08.035Z,12.39
2022-09-02T04:48:51.424Z,12.38
2022-09-02T04:52:34.140Z,12.37
2022-09-02T04:56:18.988Z,12.35
2022-09-02T05:00:03.789Z,12.38
2022-09-02T05:03:48.713Z,12.41
2022-09-02T05:07:31.496Z,12.40
2022-09-02T05:11:18.480Z,12.44
2022-09-02T05:15:01.649Z,12.48
2022-09-02T05:18:45.026Z,12.53
2022-09-02T05:22:29.520Z,12.55
2022-09-02T05:26:14.106Z,12.59
2022-09-02T05:29:59.606Z,12.60
2022-09-02T05:33:42.977Z,12.66
2022-09-02T05:37:26.627Z,12.66
2022-09-02T05:41:14.603Z,12.72
2022-09-02T05:44:57.356Z,12.78
2022-09-02T05:49:03.405Z,12.83
2022-09-02T05:52:46.949Z,12.94
2022-09-02T05:56:31.037Z,12.98
2022-09-02T06:00:17.664Z,13.08
2022-09-02T06:04:02.350Z,13.15
2022-09-02T06:07:45.107Z,13.27
2022-09-02T06:11:28.827Z,13.39
2022-09-02T06:15:13.551Z,13.47
2022-09-02T06:18:56.299Z,13.60
2022-09-02T06:22:39.057Z,13.70
2022-09-02T06:26:21.917Z,13.77
2022-09-02T06:30:05.303Z,13.83
2022-09-02T06:33:52.889Z,13.89
2022-09-02T06:37:35.702Z,14.00
2022-09-02T06:41:22.829Z,14.11
2022-09-02T06:45:06.428Z,14.19
2022-09-02T06:48:50.889Z,14.29
2022-09-02T06:52:34.328Z,14.38
2022-09-02T06:56:17.135Z,14.51
2022-09-02T07:00:02.469Z,14.60
2022-09-02T07:04:03.324Z,14.70
2022-09-02T07:07:49.994Z,14.76
2022-09-02T07:11:33.201Z,14.82
2022-09-02T07:15:16.091Z,14.88
2022-09-02T07:19:01.224Z,14.96
2022-09-02T07:22:44.104Z,15.00
2022-09-02T07:26:29.195Z,15.03
2022-09-02T07:30:12.821Z,15.08
2022-09-02T07:33:58.754Z,15.18
2022-09-02T07:37:41.551Z,15.25
2022-09-02T07:41:27.002Z,15.29
2022-09-02T07:45:15.552Z,15.34
2022-09-02T07:48:58.512Z,15.39
2022-09-02T07:52:41.299Z,15.48
2022-09-02T07:56:26.330Z,15.59
2022-09-02T08:00:13.631Z,15.89
2022-09-02T08:03:57.933Z,15.95
2022-09-02T08:07:45.287Z,15.95
2022-09-02T08:11:28.923Z,15.96
2022-09-02T08:15:14.387Z,16.00
2022-09-02T08:18:58.093Z,16.06
2022-09-02T08:22:41.015Z,16.23
2022-09-02T08:26:24.156Z,16.27
2022-09-02T08:30:09.976Z,16.38
2022-09-02T08:33:54.421Z,16.52
2022-09-02T08:37:38.097Z,16.76
2022-09-02T08:41:23.631Z,16.97
2022-09-02T08:45:12.757Z,17.11
2022-09-02T08:48:59.468Z,17.27
2022-09-02T08:52:45.572Z,17.36
2022-09-02T08:56:28.449Z,17.52
2022-09-02T09:00:13.419Z,17.68
2022-09-02T09:04:09.176Z,17.78
2022-09-02T09:08:02.381Z,17.81
2022-09-02T09:11:48.723Z,17.84
2022-09-02T09:15:36.930Z,17.92
2022-09-02T09:19:28.628Z,18.01
2022-09-02T09:23:34.213Z,18.10
2022-09-02T09:27:19.160Z,18.24
2022-09-02T09:31:02.019Z,18.34
2022-09-02T09:35:03.150Z,18.39
2022-09-02T09:38:45.941Z,18.49
2022-09-02T09:42:33.814Z,18.56
2022-09-02T09:46:27.680Z,18.60
2022-09-02T09:50:16.010Z,18.64
2022-09-02T09:54:16.084Z,18.72
2022-09-02T09:58:09.381Z,18.80
2022-09-02T10:01:52.495Z,18.88
2022-09-02T10:05:38.104Z,18.91
2022-09-02T10:09:31.955Z,18.97
2022-09-02T10:13:22.483Z,18.99
2022-09-02T10:17:15.820Z,19.11
2022-09-02T10:21:16.323Z,19.18
2022-09-02T10:25:09.728Z,19.20
2022-09-02T10:29:31.151Z,19.19
2022-09-02T10:33:31.566Z,19.22
2022-09-02T10:37:19.506Z,19.27
2022-09-02T10:41:11.551Z,19.38
2022-09-02T10:45:00.750Z,19.50
2022-09-02T10:48:52.922Z,19.55
2022-09-02T10:53:03.729Z,19.56
2022-09-02T10:56:53.567Z,19.59
2022-09-02T11:00:40.690Z,19.64
2022-09-02T11:04:30.555Z,19.63
2022-09-02T11:08:19.691Z,19.59
2022-09-02T11:12:07.626Z,19.62
2022-09-02T11:15:54.080Z,19.62
2022-09-02T11:19:41.255Z,19.70
2022-09-02T11:23:34.097Z,19.82
2022-09-02T11:27:41.715Z,19.86
2022-09-02T11:31:28.984Z,19.94
2022-09-02T11:35:16.277Z,20.01
2022-09-02T11:39:02.961Z,20.16
2022-09-02T11:42:59.885Z,20.26
2022-09-02T11:47:07.904Z,20.33
2022-09-02T11:51:11.868Z,20.47
2022-09-02T11:55:05.816Z,20.62
2022-09-02T11:58:49.500Z,20.73
2022-09-02T12:02:36.681Z,20.83
2022-09-02T12:06:20.981Z,20.97
2022-09-02T12:10:08.722Z,21.09
2022-09-02T12:13:51.516Z,21.22
2022-09-02T12:17:55.513Z,21.28
2022-09-02T12:22:16.705Z,21.37
2022-09-02T12:26:03.725Z,21.50
2022-09-02T12:29:46.586Z,21.60
2022-09-02T12:33:31.269Z,21.77
2022-09-02T12:37:54.256Z,21.91
2022-09-02T12:41:44.368Z,22.04
2022-09-02T12:45:32.359Z,22.19
2022-09-02T12:49:28.420Z,22.31
2022-09-02T12:53:36.176Z,22.47
2022-09-02T12:57:20.800Z,22.56
2022-09-02T13:01:14.387Z,22.69
2022-09-02T13:05:04.864Z,22.85
2022-09-02T13:13:34.442Z,23.05
2022-09-02T13:17:39.925Z,23.16
2022-09-02T13:21:43.786Z,23.32
2022-09-02T13:25:47.086Z,23.54
2022-09-02T13:29:53.036Z,23.78
2022-09-02T13:33:39.411Z,24.05
2022-09-02T13:37:32.897Z,24.16
2022-09-02T13:41:29.258Z,24.34
2022-09-02T13:45:18.757Z,24.41
2022-09-02T13:49:01.582Z,24.62
2022-09-02T13:53:34.647Z,24.79
2022-09-02T13:56:50.220Z,24.94
2022-09-02T14:00:36.184Z,25.05
2022-09-02T14:04:19.500Z,25.18
2022-09-02T14:08:08.140Z,25.43
2022-09-02T14:11:51.321Z,25.51
2022-09-02T14:15:36.047Z,25.63
2022-09-02T14:19:25.667Z,25.75
2022-09-02T14:23:09.060Z,25.87
2022-09-02T14:26:53.352Z,26.04
2022-09-02T14:30:39.514Z,26.17
2022-09-02T14:34:39.024Z,26.11
2022-09-02T14:38:24.524Z,26.16
2022-09-02T14:42:07.783Z,26.41
2022-09-02T14:45:52.007Z,26.65
2022-09-02T14:49:39.324Z,26.94
2022-09-02T14:53:23.224Z,27.15
2022-09-02T14:57:06.848Z,27.13
2022-09-02T15:00:53.745Z,27.33
2022-09-02T15:04:36.493Z,27.32
2022-09-02T15:08:19.281Z,27.53
2022-09-02T15:12:02.912Z,27.79
2022-09-02T15:15:46.053Z,27.96
2022-09-02T15:19:33.162Z,28.04
2022-09-02T15:23:16.203Z,28.07
2022-09-02T15:26:59.406Z,28.15
2022-09-02T15:30:42.268Z,28.27
2022-09-02T15:34:25.385Z,28.38
2022-09-02T15:38:10.559Z,28.66
2022-09-02T15:41:55.354Z,28.93
2022-09-02T15:45:39.687Z,29.13
2022-09-02T15:49:23.614Z,29.39
2022-09-02T15:53:06.525Z,29.62
2022-09-02T15:56:55.426Z,29.61
2022-09-02T16:00:39.480Z,29.71
2022-09-02T16:04:22.595Z,29.64
2022-09-02T16:08:05.405Z,29.37
2022-09-02T16:11:50.675Z,28.80
2022-09-02T16:15:34.419Z,28.48
2022-09-02T16:19:17.823Z,28.24
2022-09-02T16:23:00.569Z,27.88
2022-09-02T16:26:43.487Z,27.64
2022-09-02T16:30:29.997Z,27.45
2022-09-02T16:34:14.602Z,27.23
2022-09-02T16:37:57.446Z,27.02
2022-09-02T16:41:43.834Z,26.84
2022-09-02T16:45:27.981Z,26.61
2022-09-02T16:49:11.726Z,26.15
2022-09-02T16:52:55.244Z,25.67
2022-09-02T16:56:38.566Z,25.16
2022-09-02T17:00:23.450Z,24.58
2022-09-02T17:04:08.710Z,24.07
2022-09-02T17:07:55.461Z,23.66
2022-09-02T17:11:41.171Z,23.35
2022-09-02T17:15:24.472Z,22.96
2022-09-02T17:19:08.687Z,22.62
2022-09-02T17:22:51.673Z,22.34
2022-09-02T17:26:36.056Z,22.07
2022-09-02T17:30:18.974Z,21.83
2022-09-02T17:34:03.892Z,21.58
2022-09-02T17:37:48.146Z,21.39
2022-09-02T17:41:48.330Z,21.22
2022-09-02T17:45:31.150Z,21.00
2022-09-02T17:49:17.217Z,20.81
2022-09-02T17:53:01.940Z,20.65
2022-09-02T17:57:05.317Z,20.47
2022-09-02T18:00:50.323Z,20.28
2022-09-02T18:04:47.483Z,20.11
2022-09-02T18:08:37.325Z,19.94
2022-09-02T18:12:20.389Z,19.79
2022-09-02T18:16:16.394Z,19.66
2022-09-02T18:20:14.062Z,19.51
2022-09-02T18:24:03.098Z,19.37
2022-09-02T18:27:53.041Z,19.25
2022-09-02T18:31:42.094Z,19.13
2022-09-02T18:35:32.663Z,19.04
2022-09-02T18:39:44.810Z,18.94
2022-09-02T18:43:36.909Z,18.84
2022-09-02T18:47:22.130Z,18.75
2022-09-02T18:51:10.304Z,18.66
2022-09-02T18:55:02.838Z,18.58
2022-09-02T18:58:48.199Z,18.54
2022-09-02T19:02:36.746Z,18.45
2022-09-02T19:06:21.938Z,18.41
2022-09-02T19:10:09.011Z,18.36
2022-09-02T19:13:55.542Z,18.32
2022-09-02T19:17:39.670Z,18.28
2022-09-02T19:21:27.258Z,18.23
2022-09-02T19:25:13.564Z,18.19
2022-09-02T19:28:57.119Z,18.13
2022-09-02T19:32:43.814Z,18.10
2022-09-02T19:36:31.260Z,18.06
2022-09-02T19:40:21.390Z,18.00
2022-09-02T19:44:04.453Z,17.98
2022-09-02T19:51:50.182Z,17.84
2022-09-02T19:55:35.857Z,17.79
2022-09-02T19:59:18.629Z,17.75
2022-09-02T20:03:01.507Z,17.69
2022-09-02T20:06:44.501Z,17.65
2022-09-02T20:10:27.990Z,17.58
2022-09-02T20:14:14.017Z,17.52
2022-09-02T20:18:00.823Z,17.46
2022-09-02T20:21:45.513Z,17.41
2022-09-02T20:25:35.510Z,17.36
2022-09-02T20:29:34.176Z,17.27
2022-09-02T20:33:19.316Z,17.12
2022-09-02T20:37:10.864Z,17.12
2022-09-02T20:40:59.784Z,17.07
2022-09-02T20:44:51.070Z,17.06
2022-09-02T20:48:44.194Z,17.04
2022-09-02T20:52:31.418Z,16.99
2022-09-02T20:56:21.277Z,16.95
2022-09-02T21:00:09.280Z,16.94
2022-09-02T21:03:55.972Z,16.90
2022-09-02T21:07:45.516Z,16.82
2022-09-02T21:11:34.041Z,16.78
2022-09-02T21:15:28.791Z,16.73
2022-09-02T21:19:16.280Z,16.70
2022-09-02T21:23:01.931Z,16.69
2022-09-02T21:26:49.906Z,16.69
2022-09-02T21:30:41.443Z,16.69
2022-09-02T21:34:27.898Z,16.65
2022-09-02T21:38:12.776Z,16.63
2022-09-02T21:42:04.438Z,16.60
2022-09-02T21:45:54.340Z,16.62
2022-09-02T21:49:54.179Z,16.66
2022-09-02T21:53:46.212Z,16.59
2022-09-02T21:57:39.735Z,16.55
2022-09-02T22:01:42.170Z,16.55
2022-09-02T22:05:35.026Z,16.55
2022-09-02T22:09:21.187Z,16.58
2022-09-02T22:13:04.719Z,16.61
2022-09-02T22:16:56.019Z,16.58
2022-09-02T22:20:44.092Z,16.57
2022-09-02T22:24:29.719Z,16.55
2022-09-02T22:28:14.861Z,16.47
2022-09-02T22:32:00.780Z,16.42
2022-09-02T22:35:56.441Z,16.35
2022-09-02T22:39:43.725Z,16.27
2022-09-02T22:43:32.439Z,16.21
2022-09-02T22:47:43.171Z,16.18
2022-09-02T22:51:47.536Z,16.20
2022-09-02T22:55:46.581Z,16.19
2022-09-02T22:59:38.776Z,16.24
2022-09-02T23:03:26.863Z,16.26
2022-09-02T23:07:13.379Z,16.24
2022-09-02T23:11:00.200Z,16.18
2022-09-02T23:14:47.556Z,16.12
2022-09-02T23:18:37.740Z,16.09
2022-09-02T23:22:34.429Z,16.05
2022-09-02T23:26:31.839Z,16.07
2022-09-02T23:30:14.887Z,15.99
2022-09-02T23:34:06.902Z,15.96
2022-09-02T23:38:02.908Z,15.87
2022-09-02T23:41:46.897Z,15.87
2022-09-02T23:45:32.136Z,15.85
2022-09-02T23:49:23.126Z,15.86
2022-09-02T23:53:10.681Z,15.86
2022-09-02T23:57:02.353Z,15.87
